Time;durP1;ratioP1;P1;durP2;ratioP2;P2;SDS_P1;SDS_P2;PMS_P1;PMS_P2;Temp;Humidity;BMP_temperature;BMP_pressure;BME280_temperature;BME280_humidity;BME280_pressure;Samples;Min_cycle;Max_cycle;Signal;HPM_P1;HPM_P2
2023/03/24 00:01:08;;;;;;;10.80;4.60;;;;;;;22.75;44.62;98579.76;267441;1274;24238;-76
2023/03/24 00:07:13;;;;;;;7.40;4.40;;;;;;;22.77;44.54;98580.71;267188;1266;25637;-77
2023/03/24 00:13:15;;;;;;;9.50;4.90;;;;;;;22.60;44.86;98577.95;267425;1267;23929;-76
2023/03/24 00:19:18;;;;;;;12.30;5.00;;;;;;;22.48;45.33;98579.31;267668;1260;23909;-76
2023/03/24 00:25:22;;;;;;;7.90;4.60;;;;;;;22.66;44.85;98580.85;269267;1266;22422;-76
2023/03/24 00:31:24;;;;;;;9.20;4.60;;;;;;;22.65;44.95;98578.89;269108;1267;24077;-76
2023/03/24 00:37:26;;;;;;;7.90;4.40;;;;;;;22.67;45.02;98574.19;268956;1268;22541;-75
2023/03/24 00:43:28;;;;;;;9.10;4.60;;;;;;;22.56;45.34;98571.25;267532;1269;22567;-75
2023/03/24 00:49:43;;;;;;;8.00;4.70;;;;;;;22.48;45.47;98563.85;267307;1270;23319;-76
2023/03/24 00:55:48;;;;;;;7.70;4.50;;;;;;;22.53;45.26;98558.30;269214;1270;22550;-75
2023/03/24 01:01:50;;;;;;;7.10;4.10;;;;;;;22.37;45.41;98554.92;268617;1271;25432;-76
2023/03/24 01:07:55;;;;;;;6.10;4.40;;;;;;;22.48;45.33;98550.95;267256;1266;22530;-77
2023/03/24 01:13:57;;;;;;;7.60;4.00;;;;;;;22.50;45.13;98554.33;268109;1272;24365;-80
2023/03/24 01:20:06;;;;;;;7.30;3.90;;;;;;;22.51;44.96;98542.48;268272;1273;23884;-79
2023/03/24 01:26:09;;;;;;;9.30;4.20;;;;;;;22.52;45.06;98539.00;268416;1274;22569;-80
2023/03/24 01:32:11;;;;;;;6.70;4.10;;;;;;;22.34;45.28;98529.28;268863;1273;22828;-80
2023/03/24 01:38:13;;;;;;;6.00;3.80;;;;;;;22.22;45.48;98530.70;269657;1271;24184;-79
2023/03/24 01:44:33;;;;;;;6.40;3.90;;;;;;;22.26;45.46;98530.48;268368;1269;22554;-76
2023/03/24 01:50:34;;;;;;;8.00;4.30;;;;;;;22.29;45.48;98528.50;269409;1271;22397;-71
2023/03/24 01:56:41;;;;;;;8.30;4.10;;;;;;;22.30;45.42;98526.58;274502;1270;22366;-72
2023/03/24 02:02:48;;;;;;;;;;;;;;;22.31;45.37;98521.23;271411;1272;25318;-71
2023/03/24 02:08:54;;;;;;;7.60;4.70;;;;;;;22.21;45.58;98520.33;267894;1268;23122;-70
2023/03/24 02:14:56;;;;;;;7.00;4.20;;;;;;;22.02;46.01;98516.47;267964;1270;22566;-71
2023/03/24 02:20:58;;;;;;;6.40;4.20;;;;;;;21.98;46.08;98512.70;267563;1272;22529;-71
2023/03/24 02:27:02;;;;;;;6.60;4.20;;;;;;;21.88;46.19;98514.36;267243;1271;23006;-71
2023/03/24 02:33:16;;;;;;;6.70;4.00;;;;;;;22.00;45.91;98509.59;267528;1269;22537;-71
2023/03/24 02:39:28;;;;;;;7.10;4.00;;;;;;;21.98;45.93;98503.30;266990;1269;22785;-71
2023/03/24 02:45:44;;;;;;;8.60;4.30;;;;;;;22.00;46.09;98500.67;267594;1270;22759;-75
2023/03/24 02:51:57;;;;;;;6.60;4.20;;;;;;;22.03;46.02;98495.64;267157;1266;24370;-75
2023/03/24 02:58:10;;;;;;;7.80;4.20;;;;;;;22.08;45.86;98495.42;267081;1267;25459;-75
2023/03/24 03:04:31;;;;;;;6.30;4.00;;;;;;;21.99;46.00;98490.16;267273;1269;25287;-75
2023/03/24 03:10:42;;;;;;;9.10;4.10;;;;;;;21.98;46.06;98485.89;267042;1267;25307;-76
2023/03/24 03:16:58;;;;;;;7.30;4.40;;;;;;;21.97;46.14;98471.45;267076;1265;24203;-73
2023/03/24 03:23:04;;;;;;;10.10;4.50;;;;;;;21.99;46.74;98465.22;267676;1268;22533;-76
2023/03/24 03:29:20;;;;;;;7.50;4.30;;;;;;;21.97;47.31;98465.38;267944;1264;24176;-72
2023/03/24 03:35:59;;;;;;;6.40;4.40;;;;;;;21.90;47.49;98472.48;267449;1269;24269;-72
2023/03/24 03:42:02;;;;;;;6.70;3.90;;;;;;;21.85;47.60;98471.29;268938;1267;26495;-72
2023/03/24 03:48:04;;;;;;;7.00;4.00;;;;;;;21.81;47.23;98469.73;267784;1271;24160;-72
2023/03/24 03:54:09;;;;;;;8.20;4.10;;;;;;;21.91;46.72;98468.20;268280;1267;22534;-71
2023/03/24 04:00:15;;;;;;;10.30;5.10;;;;;;;21.69;47.14;98463.61;267212;1264;22580;-71
2023/03/24 04:06:52;;;;;;;9.50;5.50;;;;;;;21.39;47.75;98454.86;266968;1267;22652;-72
2023/03/24 04:13:13;;;;;;;8.70;4.50;;;;;;;21.82;47.55;98447.85;267404;1271;22544;-72
2023/03/24 04:20:11;;;;;;;6.70;4.50;;;;;;;21.74;48.86;98447.09;267805;1270;23012;-72
2023/03/24 04:26:27;;;;;;;7.60;4.30;;;;;;;21.66;48.92;98448.91;267993;1267;24317;-72
2023/03/24 04:32:45;;;;;;;6.80;4.70;;;;;;;21.63;48.40;98448.05;267328;1267;22530;-73
2023/03/24 04:38:52;;;;;;;7.30;4.80;;;;;;;21.58;48.48;98452.23;267833;1269;23378;-72
2023/03/24 04:45:05;;;;;;;8.40;4.60;;;;;;;21.52;48.95;98456.89;266907;1267;22544;-73
2023/03/24 04:51:21;;;;;;;6.90;4.70;;;;;;;21.56;48.59;98463.13;266986;1268;22545;-74
2023/03/24 04:57:34;;;;;;;8.00;4.70;;;;;;;21.53;49.21;98465.56;266931;1269;24419;-74
2023/03/24 05:03:40;;;;;;;7.60;4.60;;;;;;;21.51;49.37;98468.42;267298;1270;24211;-74
2023/03/24 05:09:42;;;;;;;7.70;4.80;;;;;;;21.53;49.49;98471.69;267271;1261;23002;-74
2023/03/24 05:15:45;;;;;;;6.70;4.20;;;;;;;21.33;52.08;98479.09;268390;1267;22520;-75
2023/03/24 05:22:07;;;;;;;8.00;4.70;;;;;;;21.12;53.66;98475.46;267452;1266;25231;-74
2023/03/24 05:28:09;;;;;;;7.20;4.70;;;;;;;21.22;52.13;98476.61;267032;1266;22624;-73
2023/03/24 05:34:10;;;;;;;6.30;4.40;;;;;;;21.25;52.82;98480.95;267525;1264;22630;-74
2023/03/24 05:40:22;;;;;;;8.00;4.20;;;;;;;21.19;53.35;98481.01;267930;1257;25402;-73
2023/03/24 05:46:43;;;;;;;7.60;4.70;;;;;;;21.39;53.53;98481.17;267910;1260;23365;-72
2023/03/24 05:52:45;;;;;;;7.00;4.70;;;;;;;21.42;52.69;98489.29;268089;1258;24216;-72
2023/03/24 05:59:04;;;;;;;7.90;5.10;;;;;;;21.57;52.11;98490.23;267065;1267;25256;-71
2023/03/24 06:05:46;;;;;;;8.50;5.40;;;;;;;21.59;53.83;98493.73;266016;1272;22523;-72
2023/03/24 06:11:49;;;;;;;7.30;5.10;;;;;;;21.54;55.07;98495.09;266922;1272;22595;-72
2023/03/24 06:17:54;;;;;;;6.80;4.60;;;;;;;21.58;55.68;98496.21;266014;1271;22629;-72
2023/03/24 06:24:06;;;;;;;6.20;4.50;;;;;;;21.64;56.29;98496.75;267125;1270;24068;-73
2023/03/24 06:30:09;;;;;;;8.00;4.90;;;;;;;21.80;56.08;98497.70;269057;1270;22586;-72
2023/03/24 06:36:12;;;;;;;6.40;4.50;;;;;;;21.88;55.54;98500.59;271476;1260;22572;-71
2023/03/24 06:42:17;;;;;;;6.90;5.00;;;;;;;22.04;54.67;98495.54;270884;1269;22597;-71
2023/03/24 06:48:19;;;;;;;5.50;4.70;;;;;;;22.32;53.84;98488.17;268196;1270;25278;-72
2023/03/24 06:54:21;;;;;;;9.00;5.00;;;;;;;22.47;53.56;98482.38;269786;1270;22537;-72
2023/03/24 07:00:24;;;;;;;10.20;5.30;;;;;;;22.77;53.27;98479.34;268692;1259;22648;-72
2023/03/24 07:06:44;;;;;;;7.40;4.90;;;;;;;22.74;53.32;98474.57;267246;1267;22560;-72
2023/03/24 07:13:06;;;;;;;8.10;4.90;;;;;;;22.82;53.47;98471.45;267182;1253;25297;-73
2023/03/24 07:19:09;;;;;;;9.00;4.80;;;;;;;23.04;53.17;98473.15;267493;1265;22667;-73
2023/03/24 07:25:13;;;;;;;7.40;5.00;;;;;;;23.44;52.77;98470.39;268257;1257;23360;-73
2023/03/24 07:31:21;;;;;;;9.00;5.10;;;;;;;23.84;52.22;98465.50;267041;1267;24894;-73
2023/03/24 07:37:27;;;;;;;8.00;5.10;;;;;;;24.00;51.46;98460.12;267150;1270;23180;-73
2023/03/24 07:43:29;;;;;;;6.90;5.10;;;;;;;24.10;51.24;98460.68;267193;1267;24938;-74
2023/03/24 07:49:52;;;;;;;7.30;5.20;;;;;;;24.71;50.00;98454.27;267524;1270;25355;-72
2023/03/24 07:55:56;;;;;;;7.00;5.60;;;;;;;24.66;50.22;98451.90;266995;1265;132648;-73
2023/03/24 08:01:59;;;;;;;7.10;5.10;;;;;;;24.86;49.88;98442.61;266961;1267;25264;-73
2023/03/24 08:08:21;;;;;;;7.60;5.30;;;;;;;25.12;49.51;98434.25;267402;1267;25437;-72
2023/03/24 08:14:25;;;;;;;7.40;4.90;;;;;;;25.24;48.82;98421.14;267433;1256;22557;-71
2023/03/24 08:20:28;;;;;;;7.30;4.80;;;;;;;25.58;48.12;98411.41;267169;1267;22507;-72
2023/03/24 08:26:33;;;;;;;10.40;5.50;;;;;;;25.77;47.75;98399.88;267085;1265;25288;-74
2023/03/24 08:32:35;;;;;;;7.30;5.20;;;;;;;25.78;47.53;98392.89;267553;1267;23324;-74
2023/03/24 08:38:37;;;;;;;7.20;4.90;;;;;;;26.01;47.18;98391.24;266949;1267;25452;-73
2023/03/24 08:44:41;;;;;;;8.50;5.00;;;;;;;26.00;47.11;98383.27;267334;1267;22641;-74
2023/03/24 08:50:43;;;;;;;5.70;4.60;;;;;;;26.08;46.66;98376.98;267297;1268;22589;-78
2023/03/24 08:56:47;;;;;;;6.30;4.40;;;;;;;26.34;46.40;98369.65;267095;1267;22704;-73
2023/03/24 09:02:52;;;;;;;7.30;5.00;;;;;;;26.57;45.44;98357.17;267054;1266;23914;-74
2023/03/24 09:08:54;;;;;;;8.00;5.60;;;;;;;26.61;44.59;98353.64;267519;1267;24298;-74
2023/03/24 09:14:55;;;;;;;7.50;5.40;;;;;;;26.82;44.14;98351.48;267430;1256;22663;-73
2023/03/24 09:20:57;;;;;;;5.90;4.60;;;;;;;27.22;43.60;98343.33;267422;1259;23320;-73
2023/03/24 09:26:59;;;;;;;6.30;4.60;;;;;;;27.46;42.82;98340.48;267931;1268;22548;-72
2023/03/24 09:33:01;;;;;;;6.30;4.60;;;;;;;28.09;41.48;98320.98;267447;1267;23519;-73
2023/03/24 09:39:02;;;;;;;6.50;5.00;;;;;;;28.39;40.92;98305.80;267665;1259;22588;-74
2023/03/24 09:45:20;;;;;;;5.90;3.90;;;;;;;28.61;39.97;98301.11;267991;1269;22543;-73
2023/03/24 09:51:27;;;;;;;5.90;4.10;;;;;;;29.22;39.55;98294.96;267453;1267;23146;-73
2023/03/24 09:57:35;;;;;;;5.20;4.10;;;;;;;29.59;38.60;98285.02;267888;1251;24481;-73
2023/03/24 10:03:37;;;;;;;5.20;4.00;;;;;;;29.74;38.25;98271.42;268211;1256;24234;-81
2023/03/24 10:09:39;;;;;;;4.40;3.90;;;;;;;29.75;37.67;98267.47;268841;1266;22916;-74
2023/03/24 10:15:48;;;;;;;6.20;4.50;;;;;;;30.20;37.32;98259.42;267784;1267;22970;-80
2023/03/24 10:22:15;;;;;;;4.70;3.80;;;;;;;30.45;36.53;98246.19;269087;1269;22565;-80
2023/03/24 10:28:38;;;;;;;4.30;3.70;;;;;;;30.30;36.63;98239.24;269101;1270;24247;-80
2023/03/24 10:34:43;;;;;;;4.20;3.60;;;;;;;30.72;36.21;98228.64;267757;1274;22530;-75
2023/03/24 10:40:46;;;;;;;7.20;4.10;;;;;;;30.81;35.78;98218.86;267112;1267;22619;-82
2023/03/24 10:46:52;;;;;;;4.20;3.80;;;;;;;30.46;35.84;98215.15;268569;1274;22523;-80
2023/03/24 10:52:54;;;;;;;4.40;3.60;;;;;;;30.54;35.34;98209.09;268605;1269;22683;-80
2023/03/24 10:58:56;;;;;;;5.30;3.30;;;;;;;30.39;35.14;98214.38;268040;1262;22529;-81
2023/03/24 11:05:13;;;;;;;6.00;3.40;;;;;;;30.01;34.85;98208.36;267846;1273;24227;-82
2023/03/24 11:11:33;;;;;;;7.30;4.00;;;;;;;30.31;34.79;98201.09;267713;1267;25345;-81
2023/03/24 11:17:34;;;;;;;3.80;3.00;;;;;;;30.19;34.70;98194.26;268003;1273;24294;-80
2023/03/24 11:23:43;;;;;;;4.20;2.80;;;;;;;30.29;34.28;98182.78;267814;1272;24266;-80
2023/03/24 11:29:50;;;;;;;6.60;2.60;;;;;;;30.65;33.23;98171.60;267703;1267;24221;-80
2023/03/24 11:35:52;;;;;;;3.40;2.50;;;;;;;29.99;33.04;98167.81;267714;1273;22620;-81
2023/03/24 11:42:10;;;;;;;4.10;3.10;;;;;;;30.40;33.23;98152.19;267590;1266;22571;-83
2023/03/24 11:48:38;;;;;;;3.90;2.60;;;;;;;29.88;33.36;98150.52;267854;1271;24229;-81
2023/03/24 11:54:43;;;;;;;3.50;2.70;;;;;;;30.13;32.62;98141.89;267484;1268;22534;-80
2023/03/24 12:00:54;;;;;;;3.30;2.30;;;;;;;29.72;32.69;98134.41;267607;1274;22529;-80
2023/03/24 12:07:15;;;;;;;2.70;2.20;;;;;;;30.15;32.01;98130.25;268092;1269;24472;-82
2023/03/24 12:13:38;;;;;;;2.80;2.20;;;;;;;30.14;32.10;98128.65;268094;1269;22536;-83
2023/03/24 12:19:43;;;;;;;4.30;2.30;;;;;;;30.41;32.06;98122.81;267999;1270;25581;-81
2023/03/24 12:25:55;;;;;;;2.00;1.80;;;;;;;30.50;31.77;98121.27;268075;1250;22644;-80
2023/03/24 12:32:36;;;;;;;2.70;2.20;;;;;;;30.65;31.61;98118.05;267800;1269;22607;-82
2023/03/24 12:39:08;;;;;;;4.20;2.00;;;;;;;30.92;31.16;98112.92;267582;1269;22549;-73
2023/03/24 12:45:21;;;;;;;3.70;2.30;;;;;;;31.14;31.55;98106.09;266993;1270;25253;-74
2023/03/24 12:51:52;;;;;;;6.30;2.60;;;;;;;31.39;31.42;98104.89;266956;1260;25879;-73
2023/03/24 12:57:59;;;;;;;2.90;2.50;;;;;;;31.34;31.13;98099.33;267034;1267;25345;-71
2023/03/24 13:04:09;;;;;;;2.90;2.40;;;;;;;31.31;31.38;98093.76;266648;1267;22670;-73
2023/03/24 13:10:14;;;;;;;4.30;2.40;;;;;;;31.38;31.78;98085.45;267293;1266;22540;-72
2023/03/24 13:16:22;;;;;;;3.70;2.30;;;;;;;31.29;31.30;98081.79;268187;1265;22674;-72
2023/03/24 13:22:24;;;;;;;5.10;2.80;;;;;;;31.04;31.82;98079.65;269086;1262;22542;-73
2023/03/24 13:28:35;;;;;;;2.70;2.20;;;;;;;30.76;32.49;98068.70;268376;1266;22540;-72
2023/03/24 13:34:40;;;;;;;3.90;2.20;;;;;;;30.30;32.38;98075.61;267899;1262;22594;-72
2023/03/24 13:40:42;;;;;;;4.20;2.40;;;;;;;29.91;32.78;98071.17;268148;1269;26040;-72
2023/03/24 13:47:18;;;;;;;5.20;2.10;;;;;;;29.79;32.82;98072.73;267723;1269;25332;-73
2023/03/24 13:53:36;;;;;;;4.00;2.40;;;;;;;29.87;32.98;98064.95;268664;1274;22530;-80
2023/03/24 13:59:40;;;;;;;4.70;2.40;;;;;;;29.66;33.49;98063.15;267510;1272;23857;-74
2023/03/24 14:06:00;;;;;;;3.60;2.60;;;;;;;29.59;33.83;98059.30;268305;1268;25293;-72
2023/03/24 14:12:02;;;;;;;4.20;2.50;;;;;;;29.74;33.92;98057.43;267884;1269;22589;-74
2023/03/24 14:18:22;;;;;;;3.30;2.40;;;;;;;29.70;34.14;98054.39;267426;1269;25281;-74
2023/03/24 14:24:28;;;;;;;3.50;2.60;;;;;;;29.71;33.80;98044.44;267805;1266;25888;-74
2023/03/24 14:30:30;;;;;;;2.90;2.40;;;;;;;29.62;34.18;98029.02;267447;1269;25364;-75
2023/03/24 14:36:41;;;;;;;4.30;2.40;;;;;;;29.34;35.05;98022.05;267666;1267;22568;-76
2023/03/24 14:42:43;;;;;;;3.00;2.50;;;;;;;29.02;35.24;98016.87;267562;1270;22580;-75
2023/03/24 14:49:23;;;;;;;3.70;2.30;;;;;;;29.03;35.10;98010.63;267835;1267;22526;-75
2023/03/24 14:55:25;;;;;;;2.80;2.30;;;;;;;28.97;34.81;98010.42;267298;1266;24210;-75
2023/03/24 15:01:36;;;;;;;3.50;2.60;;;;;;;29.01;34.42;98002.94;267397;1272;22553;-74
2023/03/24 15:07:39;;;;;;;5.20;2.60;;;;;;;28.93;34.27;98000.80;267217;1270;22640;-75
2023/03/24 15:13:52;;;;;;;3.30;2.50;;;;;;;29.02;34.54;97993.07;267477;1267;24340;-73
2023/03/24 15:19:54;;;;;;;4.80;2.60;;;;;;;29.02;34.48;97984.20;267462;1269;22570;-77
2023/03/24 15:25:55;;;;;;;4.80;3.00;;;;;;;28.89;34.62;97979.73;267399;1266;22530;-75
2023/03/24 15:31:57;;;;;;;4.40;2.90;;;;;;;28.56;34.74;97976.46;268903;1267;23313;-74
2023/03/24 15:37:59;;;;;;;5.50;3.10;;;;;;;28.69;34.66;97972.80;267676;1271;23294;-75
2023/03/24 15:44:07;;;;;;;3.60;2.70;;;;;;;28.58;34.87;97972.45;267357;1272;22568;-75
2023/03/24 15:50:34;;;;;;;4.70;3.20;;;;;;;28.38;35.10;97974.29;267589;1257;22553;-76
2023/03/24 15:56:36;;;;;;;5.40;3.10;;;;;;;28.35;35.15;97981.52;267699;1267;24750;-76
2023/03/24 16:02:42;;;;;;;5.50;3.20;;;;;;;28.24;35.45;97978.84;268782;1270;23251;-78
2023/03/24 16:08:45;;;;;;;4.60;3.10;;;;;;;28.08;35.66;97985.27;267319;1269;22571;-76
2023/03/24 16:14:46;;;;;;;4.70;3.30;;;;;;;28.03;35.80;97983.06;267121;1266;22572;-75
2023/03/24 16:20:50;;;;;;;5.80;3.40;;;;;;;27.95;35.82;97980.66;267147;1256;22714;-74
2023/03/24 16:26:52;;;;;;;6.00;3.80;;;;;;;27.85;35.72;97984.09;268540;1266;24225;-75
2023/03/24 16:32:54;;;;;;;5.60;4.10;;;;;;;27.60;35.88;97990.90;267544;1267;22576;-74
2023/03/24 16:38:57;;;;;;;7.20;3.60;;;;;;;27.54;36.63;97996.80;269202;1269;22803;-74
2023/03/24 16:45:00;;;;;;;7.40;3.80;;;;;;;27.28;36.43;98004.72;268973;1266;22538;-73
2023/03/24 16:51:02;;;;;;;5.90;3.90;;;;;;;27.17;36.78;98018.02;268031;1271;22531;-73
2023/03/24 16:57:03;;;;;;;6.20;4.30;;;;;;;26.84;36.77;98024.05;267161;1270;25282;-73
2023/03/24 17:03:05;;;;;;;4.10;2.80;;;;;;;26.96;37.24;98028.27;267378;1262;22527;-73
2023/03/24 17:09:08;;;;;;;4.20;3.30;;;;;;;26.05;38.62;98038.86;266962;1265;22642;-74
2023/03/24 17:15:25;;;;;;;6.40;3.40;;;;;;;26.14;38.43;98052.36;267475;1269;22559;-74
2023/03/24 17:21:27;;;;;;;5.80;3.40;;;;;;;25.98;38.78;98056.39;267354;1271;22920;-74
2023/03/24 17:27:29;;;;;;;4.30;2.80;;;;;;;25.58;39.75;98057.10;267362;1266;25438;-75
2023/03/24 17:33:35;;;;;;;5.20;3.00;;;;;;;25.48;40.16;98055.36;267069;1258;22578;-74
2023/03/24 17:39:37;;;;;;;4.70;3.00;;;;;;;25.45;40.30;98055.39;267089;1267;23006;-74
2023/03/24 17:45:40;;;;;;;4.70;2.50;;;;;;;25.60;40.15;98054.88;267244;1266;22607;-74
2023/03/24 17:51:42;;;;;;;4.90;2.80;;;;;;;25.26;40.66;98059.37;267026;1265;22533;-72
2023/03/24 17:57:44;;;;;;;6.70;3.50;;;;;;;24.70;41.90;98068.15;268447;1270;22803;-73
2023/03/24 18:03:48;;;;;;;5.40;3.70;;;;;;;24.60;42.90;98079.26;269227;1268;22133;-74
2023/03/24 18:09:50;;;;;;;6.80;3.70;;;;;;;24.29;44.71;98082.02;268402;1269;22554;-74
2023/03/24 18:15:54;;;;;;;5.90;3.80;;;;;;;24.53;44.82;98081.32;267130;1272;22531;-76
2023/03/24 18:21:55;;;;;;;5.90;3.70;;;;;;;24.57;44.94;98087.23;269222;1269;23004;-71
2023/03/24 18:27:59;;;;;;;5.40;3.90;;;;;;;24.63;45.07;98096.77;267725;1262;24504;-74
2023/03/24 18:34:02;;;;;;;6.80;4.10;;;;;;;24.50;45.79;98116.55;267720;1271;23287;-78
2023/03/24 18:40:08;;;;;;;6.30;4.30;;;;;;;24.34;46.78;98120.48;268639;1266;24170;-77
2023/03/24 18:46:10;;;;;;;6.30;4.10;;;;;;;23.92;48.35;98122.06;268655;1269;22572;-77
2023/03/24 18:52:16;;;;;;;6.80;4.30;;;;;;;23.90;49.13;98112.38;268385;1272;22543;-76
2023/03/24 18:58:24;;;;;;;11.20;6.30;;;;;;;24.01;49.41;98106.13;268314;1269;22537;-75
2023/03/24 19:04:26;;;;;;;9.00;5.90;;;;;;;23.84;50.11;98113.10;268956;1268;22562;-82
2023/03/24 19:10:34;;;;;;;8.00;5.90;;;;;;;23.79;50.17;98117.98;268416;1274;24427;-82
2023/03/24 19:16:38;;;;;;;8.10;5.90;;;;;;;23.61;50.03;98115.50;268474;1266;23798;-77
2023/03/24 19:22:46;;;;;;;8.80;5.80;;;;;;;23.46;49.75;98118.13;268199;1259;24250;-81
2023/03/24 19:28:48;;;;;;;10.50;6.00;;;;;;;23.08;49.89;98125.48;268661;1272;22552;-79
2023/03/24 19:34:50;;;;;;;8.50;5.90;;;;;;;22.92;50.23;98108.73;268552;1253;24260;-76
2023/03/24 19:40:52;;;;;;;9.10;5.00;;;;;;;23.26;49.54;98090.48;268195;1273;22597;-77
2023/03/24 19:46:58;;;;;;;8.40;4.50;;;;;;;22.96;49.98;98075.14;269057;1275;22532;-77
2023/03/24 19:52:59;;;;;;;5.70;4.00;;;;;;;22.85;50.21;98074.02;268661;1270;77867;-77
2023/03/24 19:59:01;;;;;;;5.40;3.90;;;;;;;22.98;49.73;98074.86;268268;1270;23875;-77
2023/03/24 20:05:09;;;;;;;6.60;4.20;;;;;;;22.84;49.70;98070.70;268571;1258;22524;-80
2023/03/24 20:11:11;;;;;;;5.70;4.20;;;;;;;22.54;50.15;98068.77;268251;1274;22632;-80
2023/03/24 20:17:18;;;;;;;7.80;4.90;;;;;;;22.55;50.16;98057.52;268348;1273;22581;-80
2023/03/24 20:23:21;;;;;;;6.50;4.80;;;;;;;22.35;50.63;98057.89;268250;1272;24342;-79
2023/03/24 20:29:22;;;;;;;9.30;5.80;;;;;;;22.65;50.08;98052.17;268708;1273;22578;-76
2023/03/24 20:35:26;;;;;;;7.70;5.20;;;;;;;22.43;50.39;98054.04;267560;1267;26135;-74
2023/03/24 20:41:28;;;;;;;9.10;5.60;;;;;;;22.53;50.31;98059.58;267382;1270;22605;-75
2023/03/24 20:47:30;;;;;;;6.90;4.60;;;;;;;22.63;50.20;98061.79;268477;1262;24201;-74
2023/03/24 20:53:33;;;;;;;7.20;4.80;;;;;;;22.47;50.46;98073.66;267712;1267;22943;-72
2023/03/24 20:59:36;;;;;;;7.60;5.10;;;;;;;22.15;50.89;98076.30;267842;1271;26487;-74
2023/03/24 21:05:38;;;;;;;8.60;4.90;;;;;;;22.27;50.75;98079.70;270030;1270;22550;-73
2023/03/24 21:11:40;;;;;;;8.70;5.50;;;;;;;22.41;50.55;98084.21;269501;1272;22222;-74
2023/03/24 21:17:41;;;;;;;8.70;7.00;;;;;;;22.53;50.91;98086.26;270396;1267;22667;-73
2023/03/24 21:23:43;;;;;;;10.70;6.90;;;;;;;22.17;52.65;98083.85;269479;1272;22135;-73
2023/03/24 21:29:45;;;;;;;9.00;6.70;;;;;;;22.23;52.89;98083.94;268221;1271;22527;-73
2023/03/24 21:35:47;;;;;;;11.60;7.50;;;;;;;22.20;52.82;98083.83;267270;1271;22623;-73
2023/03/24 21:41:51;;;;;;;11.30;7.60;;;;;;;22.15;52.90;98066.35;268084;1270;22590;-74
2023/03/24 21:47:53;;;;;;;13.50;8.00;;;;;;;22.07;52.71;98061.69;267929;1269;22573;-74
2023/03/24 21:53:55;;;;;;;9.90;7.40;;;;;;;22.07;52.91;98063.84;267723;1270;26575;-74
2023/03/24 21:59:58;;;;;;;12.00;7.40;;;;;;;22.10;52.98;98059.73;268158;1272;22537;-73
2023/03/24 22:05:59;;;;;;;10.00;6.40;;;;;;;21.90;53.26;98064.69;267272;1270;25386;-73
2023/03/24 22:12:01;;;;;;;9.10;6.50;;;;;;;21.77;53.48;98071.98;267476;1269;25335;-73
2023/03/24 22:18:03;;;;;;;8.60;6.00;;;;;;;21.71;53.41;98075.37;267402;1257;22630;-76
2023/03/24 22:24:05;;;;;;;7.60;5.70;;;;;;;21.73;53.32;98071.75;267957;1267;24200;-74
2023/03/24 22:30:10;;;;;;;8.30;5.10;;;;;;;21.66;53.30;98069.36;268183;1270;25393;-74
2023/03/24 22:36:12;;;;;;;9.20;5.80;;;;;;;21.81;53.06;98064.64;268473;1270;22544;-74
2023/03/24 22:42:14;;;;;;;6.00;4.70;;;;;;;21.83;52.96;98058.64;268230;1270;24452;-74
2023/03/24 22:48:16;;;;;;;7.10;5.10;;;;;;;21.84;52.80;98058.98;269642;1267;22687;-75
2023/03/24 22:54:18;;;;;;;8.30;5.20;;;;;;;21.51;53.57;98051.79;268300;1257;22611;-73
2023/03/24 23:00:20;;;;;;;7.10;5.20;;;;;;;21.19;54.23;98048.45;267627;1267;22546;-72
2023/03/24 23:06:21;;;;;;;7.70;5.10;;;;;;;21.00;54.52;98039.92;267251;1257;22685;-74
2023/03/24 23:12:23;;;;;;;6.60;4.70;;;;;;;20.58;55.10;98039.82;267269;1274;22573;-75
2023/03/24 23:18:25;;;;;;;8.90;5.40;;;;;;;20.52;55.34;98044.98;267395;1254;22567;-74
2023/03/24 23:24:27;;;;;;;7.80;4.90;;;;;;;20.20;55.98;98043.19;267520;1270;22556;-74
2023/03/24 23:30:29;;;;;;;7.30;5.10;;;;;;;20.05;56.41;98052.39;268019;1267;24210;-73
2023/03/24 23:36:32;;;;;;;8.00;4.80;;;;;;;19.98;56.50;98048.05;268788;1269;22580;-75
2023/03/24 23:42:35;;;;;;;8.60;5.70;;;;;;;19.96;56.59;98037.27;267901;1270;22566;-76
2023/03/24 23:48:37;;;;;;;7.60;5.10;;;;;;;19.89;56.49;98032.80;267308;1267;22541;-74
2023/03/24 23:54:39;;;;;;;6.40;4.80;;;;;;;19.76;56.86;98032.16;267236;1268;23055;-74
